Time;durP1;ratioP1;P1;durP2;ratioP2;P2;SDS_P1;SDS_P2;PMS_P1;PMS_P2;Temp;Humidity;BMP_temperature;BMP_pressure;BME280_temperature;BME280_humidity;BME280_pressure;Samples;Min_cycle;Max_cycle;Signal;HPM_P1;HPM_P2
2024/04/13 00:01:25;;;;;;;9.73;8.30;;;13.10;99.90;;;13.33;79.08;100131.22;5367522;26;20779;-68
2024/04/13 00:03:53;;;;;;;14.20;9.10;;;13.90;99.90;;;13.22;79.12;100127.50;5370769;26;20476;-69
2024/04/13 00:06:19;;;;;;;13.57;8.80;;;13.10;99.90;;;13.14;80.00;100128.97;5371166;26;20470;-67
2024/04/13 00:08:44;;;;;;;10.13;8.77;;;13.00;99.90;;;13.09;79.90;100134.56;5375955;26;20482;-69
2024/04/13 00:11:10;;;;;;;13.80;8.77;;;13.00;99.90;;;13.06;80.46;100136.59;5366434;26;20240;-68
2024/04/13 00:13:36;;;;;;;13.17;9.17;;;12.90;99.90;;;13.03;80.84;100135.00;5372143;26;20299;-64
2024/04/13 00:16:02;;;;;;;9.60;8.10;;;12.90;99.90;;;13.04;80.83;100131.41;5365778;26;20977;-68
2024/04/13 00:18:33;;;;;;;9.07;7.43;;;12.90;99.90;;;13.05;80.48;100122.56;5376152;26;20287;-68
2024/04/13 00:21:02;;;;;;;10.80;8.90;;;12.80;99.90;;;13.04;80.11;100120.84;5338589;26;20470;-67
2024/04/13 00:23:31;;;;;;;10.00;8.30;;;12.80;99.90;;;13.03;80.39;100116.53;5345947;26;20470;-69
2024/04/13 00:25:57;;;;;;;10.37;8.20;;;12.80;99.90;;;13.02;80.39;100114.84;5377048;26;20474;-64
2024/04/13 00:28:23;;;;;;;10.47;8.80;;;12.80;99.90;;;13.03;80.11;100120.97;5360281;26;20470;-68
2024/04/13 00:30:49;;;;;;;10.13;8.40;;;12.80;99.90;;;13.02;80.27;100117.50;5346455;26;20256;-68
2024/04/13 00:33:15;;;;;;;13.53;8.67;;;12.80;99.90;;;13.01;79.78;100112.31;5368957;26;20237;-69
2024/04/13 00:35:41;;;;;;;11.33;8.60;;;12.80;99.90;;;12.96;79.96;100104.72;5339066;26;20470;-68
2024/04/13 00:38:08;;;;;;;12.20;8.43;;;12.70;99.90;;;12.95;80.02;100103.84;5360923;26;20517;-70
2024/04/13 00:40:34;;;;;;;9.80;7.87;;;12.70;99.90;;;12.97;79.73;100109.88;5372642;26;20522;-68
2024/04/13 00:43:11;;;;;;;10.63;8.07;;;12.70;99.90;;;12.89;79.92;100104.31;5363282;26;20534;-68
2024/04/13 00:45:45;;;;;;;13.70;7.60;;;12.70;99.90;;;12.87;79.94;100107.97;5364250;26;20291;-69
2024/04/13 00:48:15;;;;;;;10.37;7.73;;;12.60;99.90;;;12.87;79.76;100106.19;5363745;26;20468;-66
2024/04/13 00:50:46;;;;;;;11.53;8.67;;;12.60;99.90;;;12.84;79.57;100101.13;5339593;26;20740;-69
2024/04/13 00:53:13;;;;;;;12.43;8.53;;;12.60;99.90;;;12.81;79.80;100096.06;5361832;26;20470;-69
2024/04/13 00:55:40;;;;;;;10.80;8.10;;;12.60;99.90;;;12.79;79.50;100094.47;5354908;26;21671;-70
2024/04/13 00:58:07;;;;;;;10.07;7.60;;;12.50;99.90;;;12.75;80.01;100096.47;5359947;26;20460;-70
2024/04/13 01:00:36;;;;;;;8.63;7.33;;;12.50;99.90;;;12.74;79.84;100098.28;5372675;26;20487;-69
2024/04/13 01:03:03;;;;;;;10.40;8.00;;;12.50;99.90;;;12.74;79.88;100100.91;5360047;26;20487;-68
2024/04/13 01:05:34;;;;;;;9.87;8.50;;;12.50;99.90;;;12.71;79.56;100098.47;5373569;26;20477;-67
2024/04/13 01:08:01;;;;;;;11.13;8.50;;;12.50;99.90;;;12.68;79.93;100096.03;5374249;26;20574;-67
2024/04/13 01:10:27;;;;;;;10.40;8.20;;;12.40;99.90;;;12.64;80.23;100081.41;5383213;26;20522;-69
2024/04/13 01:12:54;;;;;;;12.30;8.00;;;12.40;99.90;;;12.66;80.44;100091.81;5370464;26;22153;-68
2024/04/13 01:15:20;;;;;;;11.70;8.20;;;12.40;99.90;;;12.64;80.24;100093.69;5366555;26;20642;-67
2024/04/13 01:17:47;;;;;;;12.00;8.60;;;12.40;99.90;;;12.61;80.18;100088.63;5374552;26;20479;-68
2024/04/13 01:20:13;;;;;;;10.20;7.70;;;12.40;99.90;;;12.56;80.19;100088.97;5384345;26;20246;-67
2024/04/13 01:22:43;;;;;;;9.10;8.10;;;12.40;99.90;;;12.57;80.48;100100.34;5374272;26;20527;-68
2024/04/13 01:25:11;;;;;;;9.20;7.37;;;12.30;99.90;;;12.53;80.08;100094.44;5365408;26;20470;-69
2024/04/13 01:27:36;;;;;;;10.80;7.93;;;12.30;99.90;;;12.52;79.97;100092.75;5374386;26;20585;-68
2024/04/13 01:30:09;;;;;;;10.93;8.00;;;12.30;99.90;;;12.45;80.06;100092.31;5371989;26;21097;-69
2024/04/13 01:32:35;;;;;;;13.13;8.87;;;12.30;99.90;;;12.42;80.46;100089.91;5344240;26;20304;-68
2024/04/13 01:35:13;;;;;;;10.97;8.00;;;12.20;99.90;;;12.37;80.61;100097.25;5370794;26;20490;-67
2024/04/13 01:37:40;;;;;;;11.73;8.33;;;12.20;99.90;;;12.35;80.97;100091.22;5400502;26;20324;-68
2024/04/13 01:40:10;;;;;;;12.60;9.17;;;12.20;99.90;;;12.27;80.68;100094.38;5372262;26;20472;-68
2024/04/13 01:42:37;;;;;;;10.30;8.13;;;12.10;99.90;;;12.29;80.74;100091.63;5372795;26;20455;-60
2024/04/13 01:45:03;;;;;;;10.20;8.20;;;12.10;99.90;;;12.31;80.36;100087.13;5369206;26;20477;-69
2024/04/13 01:47:30;;;;;;;10.43;8.30;;;12.10;99.90;;;12.31;80.63;100092.38;5371483;26;20474;-69
2024/04/13 01:49:56;;;;;;;12.10;8.53;;;12.10;99.90;;;12.29;80.38;100089.00;5369796;26;20466;-70
2024/04/13 01:52:22;;;;;;;14.77;7.90;;;12.00;99.90;;;12.28;80.58;100087.31;5367850;26;21338;-68
2024/04/13 01:54:48;;;;;;;8.90;7.63;;;12.00;99.90;;;12.26;80.31;100091.84;5367116;26;20462;-68
2024/04/13 01:57:14;;;;;;;10.13;7.80;;;12.00;99.90;;;12.25;80.19;100088.38;5372130;26;21188;-64
2024/04/13 01:59:41;;;;;;;13.30;9.10;;;12.10;99.90;;;12.20;80.50;100084.34;5339172;26;20478;-68
2024/04/13 02:02:10;;;;;;;9.63;7.90;;;12.00;99.90;;;12.13;80.71;100081.25;5351773;26;20478;-67
2024/04/13 02:04:36;;;;;;;11.90;8.17;;;12.00;99.90;;;12.15;80.55;100089.09;5367055;26;20489;-68
2024/04/13 02:07:04;;;;;;;9.77;7.93;;;12.00;99.90;;;12.13;80.78;100090.97;5371310;26;20522;-67
2024/04/13 02:09:31;;;;;;;11.73;8.07;;;11.90;99.90;;;12.10;80.43;100088.53;5342704;26;20807;-69
2024/04/13 02:11:57;;;;;;;11.30;8.60;;;12.70;99.90;;;12.03;80.84;100082.81;5370152;26;20470;-69
2024/04/13 02:14:23;;;;;;;11.90;8.50;;;11.90;99.90;;;11.98;81.06;100087.53;5366987;26;20530;-69
2024/04/13 02:16:50;;;;;;;10.20;8.03;;;11.80;99.90;;;11.99;81.34;100082.19;5377961;26;20291;-68
2024/04/13 02:19:16;;;;;;;9.20;7.70;;;11.80;99.90;;;12.00;80.86;100090.91;5380552;26;20240;-61
2024/04/13 02:21:42;;;;;;;9.07;7.20;;;11.80;99.90;;;12.02;80.33;100089.03;5374279;26;20470;-64
2024/04/13 02:24:12;;;;;;;11.83;8.00;;;11.80;99.90;;;11.98;80.25;100083.13;5368169;26;20467;-68
2024/04/13 02:26:39;;;;;;;9.07;7.57;;;11.70;99.90;;;11.90;80.86;100074.88;5346517;26;20491;-68
2024/04/13 02:29:04;;;;;;;10.63;8.10;;;11.70;99.90;;;11.83;81.49;100079.66;5350671;26;21704;-68
2024/04/13 02:31:30;;;;;;;11.37;8.30;;;11.70;99.90;;;11.85;81.15;100076.09;5374685;26;20326;-68
2024/04/13 02:33:56;;;;;;;9.90;8.07;;;11.60;99.90;;;11.83;80.70;100076.19;5366969;26;20247;-67
2024/04/13 02:36:21;;;;;;;9.43;8.03;;;11.60;99.90;;;11.83;80.56;100081.44;5363555;26;20297;-68
2024/04/13 02:38:47;;;;;;;10.43;7.77;;;11.60;99.90;;;11.86;80.74;100078.66;5368139;26;20293;-68
2024/04/13 02:41:13;;;;;;;10.47;7.60;;;11.60;99.90;;;11.83;80.75;100070.91;5380273;26;20248;-68
2024/04/13 02:43:39;;;;;;;10.10;7.87;;;11.60;99.90;;;11.83;80.45;100077.03;5378734;26;20241;-69
2024/04/13 02:46:12;;;;;;;9.33;7.83;;;11.60;99.90;;;11.80;80.49;100074.59;5361870;26;20298;-69
2024/04/13 02:48:39;;;;;;;9.60;7.63;;;11.60;99.90;;;11.79;80.71;100083.44;5376655;26;20351;-67
2024/04/13 02:51:06;;;;;;;10.20;7.53;;;11.60;99.90;;;11.76;80.28;100077.53;5376209;26;20477;-69
2024/04/13 02:53:34;;;;;;;9.40;7.60;;;11.50;99.90;;;11.71;80.55;100066.44;5366948;26;20468;-63
2024/04/13 02:56:01;;;;;;;9.93;7.30;;;12.80;99.90;;;11.71;80.47;100074.34;5347403;26;20522;-68
2024/04/13 02:58:26;;;;;;;10.50;8.03;;;11.50;99.90;;;11.71;80.37;100074.34;5373328;26;20516;-68
2024/04/13 03:00:58;;;;;;;9.33;7.40;;;11.50;99.90;;;11.69;80.20;100084.09;5360592;26;21166;-67
2024/04/13 03:03:25;;;;;;;9.10;7.60;;;13.00;99.90;;;11.67;80.42;100080.75;5363152;26;20538;-64
2024/04/13 03:06:08;;;;;;;12.50;7.70;;;11.40;99.90;;;11.57;80.32;100068.16;5371673;26;20469;-66
2024/04/13 03:08:35;;;;;;;9.47;7.27;;;11.20;99.90;;;11.54;80.38;100071.00;5362177;26;20491;-67
2024/04/13 03:11:04;;;;;;;10.67;8.07;;;12.60;99.90;;;11.54;80.75;100072.78;5363088;26;20543;-69
2024/04/13 03:13:30;;;;;;;9.63;7.73;;;11.30;99.90;;;11.52;80.51;100072.88;5373285;26;20477;-68
2024/04/13 03:16:09;;;;;;;9.87;7.53;;;11.30;99.90;;;11.44;80.26;100069.88;5351355;26;20574;-64
2024/04/13 03:18:46;;;;;;;10.83;7.73;;;11.30;99.90;;;11.43;80.78;100076.06;5371578;26;20534;-68
2024/04/13 03:21:12;;;;;;;10.13;7.10;;;11.30;99.90;;;11.45;80.82;100071.59;5366837;26;20486;-68
2024/04/13 03:23:40;;;;;;;9.10;7.40;;;11.20;99.90;;;11.48;80.20;100066.13;5369716;26;20932;-68
2024/04/13 03:26:06;;;;;;;9.10;7.60;;;11.20;99.90;;;11.48;80.41;100066.13;5376943;26;20259;-69
2024/04/13 03:28:34;;;;;;;11.83;6.97;;;11.20;99.90;;;11.45;80.17;100071.59;5374852;26;20483;-69
2024/04/13 03:31:02;;;;;;;9.97;7.90;;;11.20;99.90;;;11.44;80.07;100069.88;5405004;26;20898;-68
2024/04/13 03:33:28;;;;;;;8.73;7.47;;;11.20;99.90;;;11.43;80.35;100067.34;5364831;26;20469;-68
2024/04/13 03:35:59;;;;;;;10.67;8.30;;;11.20;99.90;;;11.32;80.07;100068.03;5348812;26;20565;-69
2024/04/13 03:38:25;;;;;;;10.53;7.70;;;11.20;99.90;;;11.32;80.20;100070.66;5370633;26;20544;-68
2024/04/13 03:41:08;;;;;;;9.17;7.43;;;11.20;99.90;;;11.32;80.22;100071.50;5404590;26;20533;-66
2024/04/13 03:43:36;;;;;;;11.10;7.97;;;11.10;99.90;;;11.29;79.90;100065.59;5367370;26;20478;-66
2024/04/13 03:46:03;;;;;;;10.60;8.00;;;11.10;99.90;;;11.22;80.69;100069.53;5339893;26;20537;-69
2024/04/13 03:48:29;;;;;;;9.93;7.77;;;11.10;99.90;;;11.23;80.81;100071.22;5365629;26;20565;-68
2024/04/13 03:50:55;;;;;;;9.50;7.80;;;11.10;99.90;;;11.23;80.81;100071.22;5350148;26;20750;-69
2024/04/13 03:53:21;;;;;;;10.50;7.97;;;11.00;99.90;;;11.21;80.45;100057.31;5375388;26;20482;-67
2024/04/13 03:55:47;;;;;;;10.13;8.37;;;11.00;99.90;;;11.12;80.68;100059.56;5371075;26;20606;-69
2024/04/13 03:58:13;;;;;;;10.10;8.10;;;11.00;99.90;;;11.10;80.98;100056.22;5369960;26;21251;-69
2024/04/13 04:00:41;;;;;;;10.13;7.97;;;11.00;99.90;;;11.13;80.59;100060.44;5379453;26;20280;-70
2024/04/13 04:03:07;;;;;;;10.20;8.10;;;10.90;99.90;;;11.13;80.49;100053.38;5366858;26;20480;-67
2024/04/13 04:05:32;;;;;;;9.00;7.20;;;10.90;99.90;;;11.16;80.54;100054.13;5361655;26;20527;-64
2024/04/13 04:07:58;;;;;;;9.60;7.70;;;10.90;99.90;;;11.10;80.54;100048.31;5386421;26;20324;-69
2024/04/13 04:10:24;;;;;;;12.00;8.40;;;10.90;99.90;;;11.02;80.24;100045.31;5363692;26;20294;-68
2024/04/13 04:12:49;;;;;;;10.17;8.23;;;10.90;99.90;;;10.96;80.22;100045.69;5362404;26;20246;-70
2024/04/13 04:15:15;;;;;;;10.30;7.80;;;10.80;99.90;;;10.94;80.14;100044.94;5366908;26;20728;-70
2024/04/13 04:17:41;;;;;;;10.13;7.70;;;10.80;99.90;;;10.95;80.25;100051.03;5364822;26;20248;-69
2024/04/13 04:20:07;;;;;;;11.77;8.57;;;10.80;99.90;;;10.95;80.60;100053.69;5399277;26;20804;-67
2024/04/13 04:22:33;;;;;;;9.60;7.60;;;10.80;99.90;;;10.88;80.46;100055.84;5345946;26;20289;-70
2024/04/13 04:24:58;;;;;;;10.20;7.70;;;10.80;99.90;;;10.84;80.77;100052.53;5366832;26;20481;-69
2024/04/13 04:27:25;;;;;;;10.23;7.30;;;10.80;99.90;;;10.84;80.83;100049.06;5404546;26;20328;-69
2024/04/13 04:29:50;;;;;;;9.53;7.80;;;10.70;99.90;;;10.81;80.42;100055.38;5371264;26;20251;-69
2024/04/13 04:32:17;;;;;;;10.50;7.97;;;10.60;99.90;;;10.76;80.49;100043.44;5366406;26;20468;-64
2024/04/13 04:34:43;;;;;;;9.27;7.67;;;10.60;99.90;;;10.68;81.39;100049.13;5361344;26;20768;-69
2024/04/13 04:37:09;;;;;;;10.60;7.80;;;10.60;99.90;;;10.61;81.71;100046.03;5362288;26;20560;-66
2024/04/13 04:39:34;;;;;;;9.97;7.57;;;10.60;99.90;;;10.64;81.55;100048.47;5375011;26;20287;-69
2024/04/13 04:42:00;;;;;;;10.30;7.60;;;10.50;99.90;;;10.65;81.45;100051.94;5358279;26;20253;-70
2024/04/13 04:44:26;;;;;;;9.37;7.37;;;10.50;99.90;;;10.63;81.28;100052.06;5364679;26;20255;-69
2024/04/13 04:46:51;;;;;;;8.53;7.20;;;10.50;99.90;;;10.66;80.67;100057.13;5360234;26;20294;-68
2024/04/13 04:49:17;;;;;;;9.77;7.67;;;10.50;99.90;;;10.69;80.80;100053.47;5366915;26;20295;-67
2024/04/13 04:51:43;;;;;;;9.70;7.60;;;10.50;99.90;;;10.65;80.26;100052.78;5342393;26;21075;-69
2024/04/13 04:54:08;;;;;;;9.73;7.13;;;10.50;99.90;;;10.68;80.45;100057.84;5369525;26;20256;-68
2024/04/13 04:56:34;;;;;;;9.23;7.10;;;10.40;99.90;;;10.70;80.51;100055.16;5365618;26;20253;-67
2024/04/13 04:59:00;;;;;;;10.23;7.50;;;10.40;99.90;;;10.73;80.09;100054.13;5376509;26;20806;-68
2024/04/13 05:01:26;;;;;;;11.90;7.80;;;10.50;99.90;;;10.75;80.21;100049.59;5348084;26;20263;-68
2024/04/13 05:03:54;;;;;;;13.17;8.80;;;11.10;99.90;;;10.74;79.98;100045.31;5375368;26;20279;-68
2024/04/13 05:06:20;;;;;;;10.83;8.77;;;10.50;99.90;;;10.69;80.53;100045.59;5366153;26;20258;-68
2024/04/13 05:08:47;;;;;;;13.30;8.50;;;11.40;99.90;;;10.74;80.92;100048.78;5372861;26;20987;-68
2024/04/13 05:11:16;;;;;;;9.97;8.03;;;10.50;99.90;;;10.99;81.51;100042.88;5381437;26;20246;-69
2024/04/13 05:13:42;;;;;;;14.07;8.37;;;10.50;99.90;;;11.54;82.52;100041.22;5365659;26;20475;-68
2024/04/13 05:16:10;;;;;;;12.47;8.43;;;10.70;99.90;;;12.19;81.50;100056.31;5368145;26;21052;-69
2024/04/13 05:18:37;;;;;;;10.23;7.83;;;11.00;99.90;;;12.53;78.18;100053.09;5367051;26;20244;-62
2024/04/13 05:21:03;;;;;;;10.33;7.73;;;11.40;99.90;;;12.76;76.29;100050.69;5375722;26;20596;-64
2024/04/13 05:23:29;;;;;;;8.40;6.77;;;11.70;99.90;;;13.16;74.78;100045.28;5363447;26;20455;-68
2024/04/13 05:25:55;;;;;;;8.97;7.07;;;12.00;99.90;;;13.64;72.73;100042.75;5359883;26;20535;-69
2024/04/13 05:28:26;;;;;;;8.27;6.40;;;12.40;99.90;;;14.40;70.10;100048.59;5370874;26;20267;-67
2024/04/13 05:31:00;;;;;;;7.77;6.53;;;12.80;99.90;;;15.16;66.62;100044.50;5370793;26;20240;-68
2024/04/13 05:33:27;;;;;;;8.97;6.70;;;13.20;99.90;;;15.38;64.43;100043.66;5341520;26;20524;-68
2024/04/13 05:35:56;;;;;;;8.40;6.87;;;13.60;99.90;;;15.38;63.18;100043.66;5368830;26;20482;-68
2024/04/13 05:38:22;;;;;;;8.13;6.23;;;13.90;99.90;;;15.37;62.81;100056.06;5374179;26;20528;-68
2024/04/13 05:40:51;;;;;;;8.53;6.07;;;14.10;99.90;;;15.25;63.11;100060.50;5366900;26;20606;-69
2024/04/13 05:43:17;;;;;;;8.40;6.80;;;14.20;99.90;;;15.15;62.91;100069.31;5362771;26;20596;-68
2024/04/13 05:45:43;;;;;;;8.40;6.57;;;15.40;99.90;;;15.05;63.01;100063.88;5368970;26;20506;-59
2024/04/13 05:48:10;;;;;;;10.13;6.60;;;14.30;99.90;;;14.88;63.09;100065.22;5366116;26;20824;-70
2024/04/13 05:50:35;;;;;;;12.10;7.13;;;14.30;99.90;;;14.65;64.25;100072.25;5364435;26;20475;-70
2024/04/13 05:53:04;;;;;;;10.40;7.10;;;14.30;99.90;;;14.57;64.79;100067.56;5374979;26;20456;-67
2024/04/13 05:55:31;;;;;;;7.80;6.40;;;14.20;99.90;;;14.52;65.13;100072.34;5403828;26;20237;-66
2024/04/13 05:57:56;;;;;;;7.30;6.33;;;14.10;99.90;;;14.39;65.56;100068.91;5346125;26;20466;-67
2024/04/13 06:00:22;;;;;;;8.57;6.90;;;14.10;99.90;;;14.28;66.16;100069.72;5372936;26;20514;-67
2024/04/13 06:02:48;;;;;;;11.37;7.40;;;14.00;99.90;;;14.27;66.66;100075.13;5362632;26;20241;-68
2024/04/13 06:05:15;;;;;;;10.07;7.80;;;13.90;99.90;;;14.20;66.61;100076.53;5376736;26;20383;-65
2024/04/13 06:07:42;;;;;;;8.77;7.33;;;13.90;99.90;;;14.21;66.76;100079.06;5375745;26;20647;-68
2024/04/13 06:10:08;;;;;;;10.57;7.40;;;13.80;99.90;;;14.22;66.64;100078.13;5377105;26;20490;-68
2024/04/13 06:12:34;;;;;;;10.23;7.47;;;13.80;99.90;;;14.15;66.63;100076.88;5368961;26;20566;-69
2024/04/13 06:15:00;;;;;;;9.50;7.13;;;13.80;99.90;;;14.16;66.94;100075.94;5365390;26;20240;-69
2024/04/13 06:17:26;;;;;;;11.53;7.70;;;13.80;99.90;;;14.19;67.38;100075.69;5345255;26;20589;-69
2024/04/13 06:19:52;;;;;;;10.60;7.53;;;13.80;99.90;;;14.29;67.34;100081.16;5367966;26;20470;-68
2024/04/13 06:22:23;;;;;;;9.87;7.60;;;13.90;99.90;;;14.36;67.69;100077.91;5371949;26;20474;-68
2024/04/13 06:24:52;;;;;;;9.97;7.47;;;13.80;99.90;;;14.43;67.50;100074.81;5369167;26;20276;-69
2024/04/13 06:27:18;;;;;;;9.70;7.63;;;13.90;99.90;;;14.52;67.26;100082.91;5371186;26;20534;-68
2024/04/13 06:29:49;;;;;;;9.03;7.33;;;13.90;99.90;;;14.65;67.50;100085.47;5366975;26;20474;-69
2024/04/13 06:32:15;;;;;;;11.00;7.60;;;14.00;99.90;;;14.84;66.97;100080.44;5345979;26;21420;-68
2024/04/13 06:34:41;;;;;;;11.33;7.87;;;14.10;99.90;;;15.00;66.16;100077.47;5376383;26;21122;-70
2024/04/13 06:37:07;;;;;;;13.03;9.87;;;14.30;99.90;;;15.00;65.48;100081.91;5340144;26;20474;-68
2024/04/13 06:39:33;;;;;;;11.57;7.53;;;14.40;99.90;;;15.10;65.94;100080.25;5370754;26;20325;-69
2024/04/13 06:41:58;;;;;;;8.90;7.13;;;14.50;99.90;;;15.34;65.07;100084.59;5365284;26;20781;-69
2024/04/13 06:44:24;;;;;;;11.40;8.43;;;14.70;99.90;;;15.39;64.57;100082.44;5336418;26;20249;-67
2024/04/13 06:46:52;;;;;;;11.40;8.40;;;14.70;99.90;;;15.66;64.23;100084.66;5378153;26;20248;-68
2024/04/13 06:49:19;;;;;;;10.33;7.97;;;14.90;99.90;;;16.11;63.15;100087.22;5367416;26;20252;-68
2024/04/13 06:51:45;;;;;;;10.50;7.77;;;15.10;99.90;;;16.20;61.94;100082.03;5375970;26;21071;-68
2024/04/13 06:54:11;;;;;;;10.23;7.93;;;16.80;99.90;;;16.38;61.81;100076.97;5371178;26;20528;-69
2024/04/13 06:56:37;;;;;;;9.90;7.60;;;15.50;99.90;;;16.60;62.12;100083.13;5363399;26;20269;-67
2024/04/13 06:59:03;;;;;;;8.93;7.33;;;15.70;99.90;;;16.93;60.73;100076.81;5367853;26;20397;-63
2024/04/13 07:01:30;;;;;;;8.53;7.10;;;16.00;99.90;;;17.17;59.66;100078.31;5366442;26;20466;-66
2024/04/13 07:03:56;;;;;;;14.87;7.20;;;16.30;99.90;;;17.25;60.28;100084.66;5371175;26;20738;-68
2024/04/13 07:06:23;;;;;;;8.47;7.03;;;16.30;99.90;;;17.36;60.26;100081.88;5375727;26;20531;-68
2024/04/13 07:08:49;;;;;;;9.30;7.90;;;16.50;99.90;;;17.53;59.17;100075.09;5346342;26;20552;-68
2024/04/13 07:11:15;;;;;;;9.73;7.10;;;16.60;99.90;;;17.67;58.71;100076.53;5373096;26;20610;-63
2024/04/13 07:13:42;;;;;;;8.50;7.30;;;16.80;99.90;;;17.71;59.39;100074.44;5364583;26;20253;-67
2024/04/13 07:16:09;;;;;;;15.10;8.40;;;16.90;99.90;;;17.80;59.23;100070.97;5371726;26;20570;-67
2024/04/13 07:18:35;;;;;;;10.83;7.90;;;17.00;99.90;;;17.48;58.90;100071.16;5375213;26;20482;-68
2024/04/13 07:21:01;;;;;;;9.10;7.33;;;17.20;99.90;;;17.57;59.91;100060.56;5342734;26;20482;-67
2024/04/13 07:23:27;;;;;;;10.93;7.73;;;17.10;99.90;;;17.64;59.55;100065.31;5371900;26;20467;-67
2024/04/13 07:26:00;;;;;;;11.93;7.77;;;17.20;99.90;;;17.33;61.06;100060.06;5347111;26;20471;-62
2024/04/13 07:28:27;;;;;;;7.90;6.67;;;17.10;99.90;;;17.53;61.54;100058.31;5362690;26;20263;-69
2024/04/13 07:30:53;;;;;;;8.80;7.30;;;17.20;99.90;;;17.70;60.63;100055.00;5338714;26;20538;-68
2024/04/13 07:33:19;;;;;;;13.87;7.57;;;17.20;99.90;;;17.93;60.37;100057.44;5370392;26;20476;-68
2024/04/13 07:35:45;;;;;;;11.00;8.33;;;17.30;99.90;;;18.09;60.22;100056.88;5363232;26;20255;-68
2024/04/13 07:38:11;;;;;;;11.03;8.43;;;17.40;99.90;;;18.33;59.67;100057.28;5366840;26;20286;-67
2024/04/13 07:40:37;;;;;;;8.60;7.10;;;17.50;99.90;;;18.59;58.74;100064.69;5339107;26;20721;-68
2024/04/13 07:43:04;;;;;;;11.80;8.20;;;17.70;99.90;;;18.70;58.27;100062.69;5341802;26;21239;-66
2024/04/13 07:45:29;;;;;;;9.90;7.73;;;17.80;99.90;;;18.78;58.80;100061.16;5363560;26;20572;-69
2024/04/13 07:47:55;;;;;;;9.37;6.93;;;17.90;99.90;;;18.93;58.77;100059.72;5366768;26;20462;-68
2024/04/13 07:50:22;;;;;;;12.03;7.67;;;18.00;99.90;;;19.20;58.07;100050.94;5336446;26;20253;-67
2024/04/13 07:52:49;;;;;;;8.23;7.13;;;18.20;99.90;;;19.49;57.07;100037.47;5348080;26;20236;-67
2024/04/13 07:55:15;;;;;;;9.37;7.87;;;18.50;99.90;;;19.71;56.31;100038.91;5364203;26;20590;-64
2024/04/13 07:57:41;;;;;;;9.37;6.97;;;18.70;99.90;;;20.05;55.55;100035.53;5365598;26;20470;-67
2024/04/13 08:00:09;;;;;;;7.80;6.80;;;18.90;99.90;;;20.03;56.16;100027.72;5374917;26;20996;-66
2024/04/13 08:02:36;;;;;;;10.17;6.80;;;19.10;99.90;;;20.09;57.30;100031.59;5362907;26;20474;-64
2024/04/13 08:05:02;;;;;;;9.77;7.00;;;19.20;99.90;;;20.32;56.12;100027.44;5363882;26;20599;-66
2024/04/13 08:07:28;;;;;;;10.17;7.10;;;19.40;99.90;;;20.70;54.32;100022.72;5368690;26;21260;-67
2024/04/13 08:09:54;;;;;;;7.70;6.30;;;19.60;99.90;;;21.08;53.76;100020.59;5372700;26;20470;-67
2024/04/13 08:12:20;;;;;;;9.10;6.90;;;19.80;99.90;;;21.41;52.67;100018.94;5367243;26;20278;-68
2024/04/13 08:14:46;;;;;;;11.20;7.63;;;20.10;99.90;;;21.35;51.97;100014.22;5370973;26;20244;-69
2024/04/13 08:17:13;;;;;;;7.60;6.73;;;20.20;99.90;;;21.57;52.06;100014.63;5343878;26;21050;-68
2024/04/13 08:19:39;;;;;;;12.60;7.23;;;20.40;99.90;;;21.69;52.22;100011.47;5348761;26;20271;-65
2024/04/13 08:22:06;;;;;;;8.90;8.00;;;20.50;99.90;;;21.83;51.54;100014.50;5380693;26;20491;-66
2024/04/13 08:24:32;;;;;;;8.80;7.30;;;20.70;99.90;;;21.96;51.71;100010.31;5365552;26;20248;-67
2024/04/13 08:26:58;;;;;;;11.80;7.93;;;20.80;99.90;;;22.07;51.09;100006.50;5367687;26;20521;-68
2024/04/13 08:29:23;;;;;;;8.30;7.40;;;21.00;99.90;;;22.24;50.54;100015.38;5372316;26;20572;-65
2024/04/13 08:31:49;;;;;;;8.73;7.10;;;21.10;99.90;;;22.45;50.79;100009.53;5393694;26;20366;-67
2024/04/13 08:34:17;;;;;;;14.43;7.80;;;21.30;99.90;;;22.68;49.75;100006.97;5362296;26;20263;-68
2024/04/13 08:36:44;;;;;;;9.30;7.30;;;21.40;99.90;;;23.00;49.35;100014.09;5352333;26;20240;-66
2024/04/13 08:39:12;;;;;;;8.50;7.13;;;21.70;99.90;;;23.09;49.23;100014.91;5361145;26;20514;-70
2024/04/13 08:41:49;;;;;;;9.80;7.23;;;21.80;99.90;;;23.26;48.83;100011.13;5341461;26;20526;-69
2024/04/13 08:44:16;;;;;;;9.80;7.63;;;22.00;99.90;;;23.38;48.88;100000.03;5364962;26;20475;-68
2024/04/13 08:46:44;;;;;;;9.57;7.30;;;22.10;99.90;;;23.59;48.18;99994.88;5367674;26;20468;-64
2024/04/13 08:49:11;;;;;;;12.33;7.20;;;22.30;99.90;;;23.82;47.88;99995.75;5360964;26;20478;-68
2024/04/13 08:51:39;;;;;;;7.33;5.87;;;22.40;99.90;;;24.06;48.10;99993.91;5373468;26;20482;-67
2024/04/13 08:54:07;;;;;;;8.50;7.00;;;22.60;99.90;;;24.19;47.94;99991.44;5368432;26;20569;-68
2024/04/13 08:56:39;;;;;;;11.63;7.10;;;22.80;99.90;;;24.22;46.81;99991.06;5360829;26;20514;-66
2024/04/13 08:59:09;;;;;;;8.37;6.70;;;23.40;99.90;;;24.22;47.18;99985.69;5357458;26;20540;-69
2024/04/13 09:01:42;;;;;;;6.90;5.87;;;23.10;99.90;;;24.19;47.43;99985.22;5360784;26;20475;-60
2024/04/13 09:04:08;;;;;;;7.47;5.93;;;23.10;99.90;;;24.30;47.30;99984.78;5368152;26;20574;-68
2024/04/13 09:06:34;;;;;;;10.00;6.33;;;23.20;99.90;;;24.41;47.82;99987.06;5344457;26;20486;-68
2024/04/13 09:09:08;;;;;;;8.97;5.30;;;23.30;99.90;;;24.63;47.95;99976.44;5363536;26;20588;-69
2024/04/13 09:11:35;;;;;;;7.80;5.47;;;23.40;99.90;;;24.79;46.86;99981.63;5373683;26;20354;-65
2024/04/13 09:14:03;;;;;;;8.33;5.07;;;23.50;99.90;;;24.79;45.98;99978.09;5366144;26;20471;-69
2024/04/13 09:16:30;;;;;;;8.00;4.50;;;23.60;99.90;;;24.29;47.19;99972.38;5362924;26;20466;-69
2024/04/13 09:18:56;;;;;;;7.03;4.60;;;23.90;99.90;;;24.21;47.49;99975.97;5376720;26;20482;-69
2024/04/13 09:21:22;;;;;;;6.67;4.57;;;23.40;99.90;;;24.30;47.70;99971.34;5366014;26;20558;-69
2024/04/13 09:23:50;;;;;;;6.20;4.10;;;23.30;99.90;;;24.70;47.16;99972.81;5367417;26;20462;-69
2024/04/13 09:26:16;;;;;;;6.50;4.37;;;23.50;99.90;;;24.44;46.66;99970.59;5345247;26;20267;-65
2024/04/13 09:28:46;;;;;;;7.17;5.40;;;23.60;99.90;;;24.23;47.12;99970.41;5372841;26;20466;-69
2024/04/13 09:31:15;;;;;;;7.53;5.13;;;23.40;99.90;;;24.10;47.16;99980.94;5373740;26;20244;-67
2024/04/13 09:33:48;;;;;;;5.83;4.20;;;23.40;99.90;;;24.14;47.64;99974.19;5339654;26;20471;-68
2024/04/13 09:36:26;;;;;;;9.33;4.47;;;23.30;99.90;;;24.29;47.43;99973.19;5343235;26;20533;-70
2024/04/13 09:38:55;;;;;;;11.23;4.33;;;23.40;99.90;;;24.37;46.73;99961.56;5375444;26;20478;-69
2024/04/13 09:41:24;;;;;;;6.33;4.50;;;23.40;99.90;;;24.19;46.43;99963.75;5374846;26;20531;-68
2024/04/13 09:43:51;;;;;;;8.33;4.30;;;23.50;99.90;;;24.18;46.15;99957.56;5369806;26;20466;-67
2024/04/13 09:46:20;;;;;;;8.13;4.00;;;23.40;99.90;;;23.99;46.90;99956.22;5360506;26;20577;-69
2024/04/13 09:48:46;;;;;;;6.20;4.40;;;23.30;99.90;;;24.01;47.20;99953.31;5370122;26;20507;-70
2024/04/13 09:51:12;;;;;;;7.23;4.20;;;23.30;99.90;;;23.89;47.62;99947.53;5377018;26;20482;-68
2024/04/13 09:53:38;;;;;;;5.97;3.77;;;23.20;99.90;;;24.28;47.23;99947.38;5381662;26;20252;-69
2024/04/13 09:56:04;;;;;;;7.40;4.20;;;23.20;99.90;;;23.95;47.34;99938.78;5371388;26;20249;-68
2024/04/13 09:58:32;;;;;;;9.43;4.40;;;23.20;99.90;;;24.00;48.47;99941.75;5340051;26;20246;-69
2024/04/13 10:01:01;;;;;;;5.50;4.00;;;23.20;99.90;;;24.13;47.20;99940.31;5374938;26;20523;-68
2024/04/13 10:03:27;;;;;;;8.07;4.87;;;23.20;99.90;;;23.90;47.09;99935.00;5366284;26;20519;-69
2024/04/13 10:05:57;;;;;;;8.40;4.30;;;23.30;99.90;;;23.68;48.17;99944.69;5364250;26;20483;-68
2024/04/13 10:08:27;;;;;;;6.53;3.70;;;23.30;99.90;;;23.97;47.36;99935.91;5350264;26;20508;-69
2024/04/13 10:10:53;;;;;;;5.17;3.97;;;23.60;99.90;;;23.94;47.42;99934.44;5371702;26;21705;-69